sensor_id;sensor_type;location;lat;lon;timestamp;temperature;humidity
9373;DHT22;10838;52.350;9.790;2024-01-11T00:00:39;-6.80;93.90
9373;DHT22;10838;52.350;9.790;2024-01-11T00:03:06;-6.80;93.90
9373;DHT22;10838;52.350;9.790;2024-01-11T00:05:32;-6.70;94.00
9373;DHT22;10838;52.350;9.790;2024-01-11T00:07:59;-6.80;93.90
9373;DHT22;10838;52.350;9.790;2024-01-11T00:10:25;-6.80;93.90
9373;DHT22;10838;52.350;9.790;2024-01-11T00:12:52;-6.80;94.00
9373;DHT22;10838;52.350;9.790;2024-01-11T00:15:18;-6.80;94.00
9373;DHT22;10838;52.350;9.790;2024-01-11T00:17:46;-6.80;94.00
9373;DHT22;10838;52.350;9.790;2024-01-11T00:20:13;-6.80;94.00
9373;DHT22;10838;52.350;9.790;2024-01-11T00:22:39;-6.80;94.00
9373;DHT22;10838;52.350;9.790;2024-01-11T00:25:07;-6.80;94.00
9373;DHT22;10838;52.350;9.790;2024-01-11T00:27:33;-6.90;94.00
9373;DHT22;10838;52.350;9.790;2024-01-11T00:30:00;-6.90;94.00
9373;DHT22;10838;52.350;9.790;2024-01-11T00:32:27;-6.90;94.00
9373;DHT22;10838;52.350;9.790;2024-01-11T00:34:54;-6.90;94.00
9373;DHT22;10838;52.350;9.790;2024-01-11T00:37:21;-6.90;94.00
9373;DHT22;10838;52.350;9.790;2024-01-11T00:39:47;-6.90;94.00
9373;DHT22;10838;52.350;9.790;2024-01-11T00:42:14;-6.90;94.00
9373;DHT22;10838;52.350;9.790;2024-01-11T00:44:41;-6.90;94.00
9373;DHT22;10838;52.350;9.790;2024-01-11T00:47:07;-6.90;94.00
9373;DHT22;10838;52.350;9.790;2024-01-11T00:49:34;-6.90;94.00
9373;DHT22;10838;52.350;9.790;2024-01-11T00:52:02;-6.90;94.00
9373;DHT22;10838;52.350;9.790;2024-01-11T00:54:29;-7.00;94.00
9373;DHT22;10838;52.350;9.790;2024-01-11T00:56:55;-7.00;94.00
9373;DHT22;10838;52.350;9.790;2024-01-11T00:59:22;-7.00;94.00
9373;DHT22;10838;52.350;9.790;2024-01-11T01:01:49;-7.00;94.00
9373;DHT22;10838;52.350;9.790;2024-01-11T01:04:15;-7.00;94.00
9373;DHT22;10838;52.350;9.790;2024-01-11T01:06:42;-7.00;94.00
9373;DHT22;10838;52.350;9.790;2024-01-11T01:09:10;-7.00;94.00
9373;DHT22;10838;52.350;9.790;2024-01-11T01:11:37;-7.00;94.00
9373;DHT22;10838;52.350;9.790;2024-01-11T01:14:04;-7.00;94.00
9373;DHT22;10838;52.350;9.790;2024-01-11T01:16:31;-7.00;94.00
9373;DHT22;10838;52.350;9.790;2024-01-11T01:18:57;-7.00;94.00
9373;DHT22;10838;52.350;9.790;2024-01-11T01:21:24;-7.00;94.00
9373;DHT22;10838;52.350;9.790;2024-01-11T01:23:50;-7.00;94.00
9373;DHT22;10838;52.350;9.790;2024-01-11T01:26:18;-7.00;94.00
9373;DHT22;10838;52.350;9.790;2024-01-11T01:28:45;-7.00;94.00
9373;DHT22;10838;52.350;9.790;2024-01-11T01:31:12;-7.00;94.00
9373;DHT22;10838;52.350;9.790;2024-01-11T01:33:39;-7.10;94.00
9373;DHT22;10838;52.350;9.790;2024-01-11T01:36:08;-7.00;94.00
9373;DHT22;10838;52.350;9.790;2024-01-11T01:38:34;-7.00;94.00
9373;DHT22;10838;52.350;9.790;2024-01-11T01:41:01;-7.10;94.00
9373;DHT22;10838;52.350;9.790;2024-01-11T01:43:29;-7.10;94.00
9373;DHT22;10838;52.350;9.790;2024-01-11T01:45:56;-7.10;94.00
9373;DHT22;10838;52.350;9.790;2024-01-11T01:48:22;-7.10;94.00
9373;DHT22;10838;52.350;9.790;2024-01-11T01:50:49;-7.00;94.00
9373;DHT22;10838;52.350;9.790;2024-01-11T01:53:17;-7.10;94.00
9373;DHT22;10838;52.350;9.790;2024-01-11T01:55:44;-7.10;94.00
9373;DHT22;10838;52.350;9.790;2024-01-11T01:58:11;-7.10;94.00
9373;DHT22;10838;52.350;9.790;2024-01-11T02:00:39;-7.10;94.00
9373;DHT22;10838;52.350;9.790;2024-01-11T02:03:08;-7.10;94.00
9373;DHT22;10838;52.350;9.790;2024-01-11T02:05:36;-7.10;94.00
9373;DHT22;10838;52.350;9.790;2024-01-11T02:08:04;-7.10;94.00
9373;DHT22;10838;52.350;9.790;2024-01-11T02:10:33;-7.10;94.00
9373;DHT22;10838;52.350;9.790;2024-01-11T02:13:01;-7.10;94.00
9373;DHT22;10838;52.350;9.790;2024-01-11T02:15:27;-7.10;94.00
9373;DHT22;10838;52.350;9.790;2024-01-11T02:17:55;-7.10;94.00
9373;DHT22;10838;52.350;9.790;2024-01-11T02:20:22;-7.10;94.00
9373;DHT22;10838;52.350;9.790;2024-01-11T02:22:53;-7.10;94.00
9373;DHT22;10838;52.350;9.790;2024-01-11T02:25:24;-7.20;94.00
9373;DHT22;10838;52.350;9.790;2024-01-11T02:27:50;-7.20;94.00
9373;DHT22;10838;52.350;9.790;2024-01-11T02:30:17;-7.20;94.00
9373;DHT22;10838;52.350;9.790;2024-01-11T02:32:45;-7.20;94.00
9373;DHT22;10838;52.350;9.790;2024-01-11T02:35:12;-7.20;94.00
9373;DHT22;10838;52.350;9.790;2024-01-11T02:37:39;-7.20;94.00
9373;DHT22;10838;52.350;9.790;2024-01-11T02:40:08;-7.20;94.00
9373;DHT22;10838;52.350;9.790;2024-01-11T02:42:36;-7.20;94.00
9373;DHT22;10838;52.350;9.790;2024-01-11T02:45:03;-7.20;94.00
9373;DHT22;10838;52.350;9.790;2024-01-11T02:47:30;-7.20;94.00
9373;DHT22;10838;52.350;9.790;2024-01-11T02:49:56;-7.20;94.00
9373;DHT22;10838;52.350;9.790;2024-01-11T02:52:23;-7.20;94.00
9373;DHT22;10838;52.350;9.790;2024-01-11T02:54:50;-7.20;94.00
9373;DHT22;10838;52.350;9.790;2024-01-11T02:57:16;-7.30;94.00
9373;DHT22;10838;52.350;9.790;2024-01-11T02:59:44;-7.30;94.00
9373;DHT22;10838;52.350;9.790;2024-01-11T03:02:11;-7.20;94.00
9373;DHT22;10838;52.350;9.790;2024-01-11T03:04:37;-7.20;94.00
9373;DHT22;10838;52.350;9.790;2024-01-11T03:07:04;-7.20;94.10
9373;DHT22;10838;52.350;9.790;2024-01-11T03:09:30;-7.20;94.10
9373;DHT22;10838;52.350;9.790;2024-01-11T03:11:57;-7.20;94.10
9373;DHT22;10838;52.350;9.790;2024-01-11T03:14:23;-7.20;94.10
9373;DHT22;10838;52.350;9.790;2024-01-11T03:16:52;-7.20;94.10
9373;DHT22;10838;52.350;9.790;2024-01-11T03:19:18;-7.20;94.10
9373;DHT22;10838;52.350;9.790;2024-01-11T03:21:45;-7.20;94.10
9373;DHT22;10838;52.350;9.790;2024-01-11T03:24:13;-7.20;94.10
9373;DHT22;10838;52.350;9.790;2024-01-11T03:26:41;-7.20;94.10
9373;DHT22;10838;52.350;9.790;2024-01-11T03:29:08;-7.30;94.00
9373;DHT22;10838;52.350;9.790;2024-01-11T03:31:34;-7.30;94.00
9373;DHT22;10838;52.350;9.790;2024-01-11T03:34:04;-7.30;94.10
9373;DHT22;10838;52.350;9.790;2024-01-11T03:36:31;-7.30;94.10
9373;DHT22;10838;52.350;9.790;2024-01-11T03:38:57;-7.30;94.10
9373;DHT22;10838;52.350;9.790;2024-01-11T03:41:24;-7.30;94.10
9373;DHT22;10838;52.350;9.790;2024-01-11T03:43:50;-7.30;94.10
9373;DHT22;10838;52.350;9.790;2024-01-11T03:46:17;-7.30;94.10
9373;DHT22;10838;52.350;9.790;2024-01-11T03:48:43;-7.30;94.10
9373;DHT22;10838;52.350;9.790;2024-01-11T03:51:11;-7.30;94.10
9373;DHT22;10838;52.350;9.790;2024-01-11T03:53:38;-7.30;94.10
9373;DHT22;10838;52.350;9.790;2024-01-11T03:56:05;-7.30;94.10
9373;DHT22;10838;52.350;9.790;2024-01-11T03:58:31;-7.30;94.10
9373;DHT22;10838;52.350;9.790;2024-01-11T04:00:58;-7.30;94.10
9373;DHT22;10838;52.350;9.790;2024-01-11T04:03:26;-7.30;94.10
9373;DHT22;10838;52.350;9.790;2024-01-11T04:05:52;-7.30;94.10
9373;DHT22;10838;52.350;9.790;2024-01-11T04:08:20;-7.30;94.10
9373;DHT22;10838;52.350;9.790;2024-01-11T04:10:46;-7.30;94.10
9373;DHT22;10838;52.350;9.790;2024-01-11T04:13:13;-7.30;94.10
9373;DHT22;10838;52.350;9.790;2024-01-11T04:15:40;-7.30;94.10
9373;DHT22;10838;52.350;9.790;2024-01-11T04:18:06;-7.30;94.10
9373;DHT22;10838;52.350;9.790;2024-01-11T04:20:33;-7.30;94.10
9373;DHT22;10838;52.350;9.790;2024-01-11T04:23:00;-7.30;94.10
9373;DHT22;10838;52.350;9.790;2024-01-11T04:25:28;-7.30;94.10
9373;DHT22;10838;52.350;9.790;2024-01-11T04:27:54;-7.30;94.10
9373;DHT22;10838;52.350;9.790;2024-01-11T04:30:21;-7.30;94.10
9373;DHT22;10838;52.350;9.790;2024-01-11T04:32:47;-7.30;94.10
9373;DHT22;10838;52.350;9.790;2024-01-11T04:35:14;-7.30;94.10
9373;DHT22;10838;52.350;9.790;2024-01-11T04:37:41;-7.30;94.10
9373;DHT22;10838;52.350;9.790;2024-01-11T04:40:08;-7.30;94.10
9373;DHT22;10838;52.350;9.790;2024-01-11T04:42:36;-7.30;94.10
9373;DHT22;10838;52.350;9.790;2024-01-11T04:45:03;-7.30;94.10
9373;DHT22;10838;52.350;9.790;2024-01-11T04:47:30;-7.30;94.10
9373;DHT22;10838;52.350;9.790;2024-01-11T04:49:57;-7.30;94.10
9373;DHT22;10838;52.350;9.790;2024-01-11T04:52:24;-7.30;94.10
9373;DHT22;10838;52.350;9.790;2024-01-11T04:54:50;-7.30;94.10
9373;DHT22;10838;52.350;9.790;2024-01-11T04:57:17;-7.30;94.10
9373;DHT22;10838;52.350;9.790;2024-01-11T04:59:45;-7.30;94.10
9373;DHT22;10838;52.350;9.790;2024-01-11T05:02:12;-7.30;94.10
9373;DHT22;10838;52.350;9.790;2024-01-11T05:04:38;-7.30;94.10
9373;DHT22;10838;52.350;9.790;2024-01-11T05:07:05;-7.30;94.10
9373;DHT22;10838;52.350;9.790;2024-01-11T05:09:31;-7.30;94.10
9373;DHT22;10838;52.350;9.790;2024-01-11T05:11:58;-7.30;94.10
9373;DHT22;10838;52.350;9.790;2024-01-11T05:14:24;-7.30;94.10
9373;DHT22;10838;52.350;9.790;2024-01-11T05:16:52;-7.30;94.10
9373;DHT22;10838;52.350;9.790;2024-01-11T05:19:19;-7.30;94.10
9373;DHT22;10838;52.350;9.790;2024-01-11T05:21:45;-7.30;94.10
9373;DHT22;10838;52.350;9.790;2024-01-11T05:24:12;-7.30;94.10
9373;DHT22;10838;52.350;9.790;2024-01-11T05:26:38;-7.30;94.10
9373;DHT22;10838;52.350;9.790;2024-01-11T05:29:05;-7.30;94.10
9373;DHT22;10838;52.350;9.790;2024-01-11T05:31:31;-7.30;94.10
9373;DHT22;10838;52.350;9.790;2024-01-11T05:33:59;-7.30;94.10
9373;DHT22;10838;52.350;9.790;2024-01-11T05:36:26;-7.30;94.10
9373;DHT22;10838;52.350;9.790;2024-01-11T05:38:52;-7.30;94.10
9373;DHT22;10838;52.350;9.790;2024-01-11T05:41:19;-7.30;94.10
9373;DHT22;10838;52.350;9.790;2024-01-11T05:43:45;-7.30;94.10
9373;DHT22;10838;52.350;9.790;2024-01-11T05:46:12;-7.30;94.10
9373;DHT22;10838;52.350;9.790;2024-01-11T05:48:39;-7.30;94.10
9373;DHT22;10838;52.350;9.790;2024-01-11T05:51:08;-7.30;94.10
9373;DHT22;10838;52.350;9.790;2024-01-11T05:53:34;-7.30;94.10
9373;DHT22;10838;52.350;9.790;2024-01-11T05:56:01;-7.30;94.10
9373;DHT22;10838;52.350;9.790;2024-01-11T05:58:28;-7.30;94.10
9373;DHT22;10838;52.350;9.790;2024-01-11T06:00:55;-7.30;94.10
9373;DHT22;10838;52.350;9.790;2024-01-11T06:03:21;-7.30;94.10
9373;DHT22;10838;52.350;9.790;2024-01-11T06:05:48;-7.30;94.10
9373;DHT22;10838;52.350;9.790;2024-01-11T06:08:16;-7.30;94.10
9373;DHT22;10838;52.350;9.790;2024-01-11T06:10:43;-7.30;94.10
9373;DHT22;10838;52.350;9.790;2024-01-11T06:13:09;-7.30;94.10
9373;DHT22;10838;52.350;9.790;2024-01-11T06:15:36;-7.30;94.20
9373;DHT22;10838;52.350;9.790;2024-01-11T06:18:03;-7.30;94.20
9373;DHT22;10838;52.350;9.790;2024-01-11T06:20:30;-7.30;94.20
9373;DHT22;10838;52.350;9.790;2024-01-11T06:22:56;-7.20;94.20
9373;DHT22;10838;52.350;9.790;2024-01-11T06:25:24;-7.20;94.20
9373;DHT22;10838;52.350;9.790;2024-01-11T06:27:51;-7.20;94.20
9373;DHT22;10838;52.350;9.790;2024-01-11T06:30:17;-7.20;94.20
9373;DHT22;10838;52.350;9.790;2024-01-11T06:32:44;-7.20;94.20
9373;DHT22;10838;52.350;9.790;2024-01-11T06:35:10;-7.20;94.20
9373;DHT22;10838;52.350;9.790;2024-01-11T06:37:37;-7.20;94.20
9373;DHT22;10838;52.350;9.790;2024-01-11T06:40:04;-7.20;94.20
9373;DHT22;10838;52.350;9.790;2024-01-11T06:42:34;-7.20;94.20
9373;DHT22;10838;52.350;9.790;2024-01-11T06:45:01;-7.20;94.20
9373;DHT22;10838;52.350;9.790;2024-01-11T06:47:28;-7.20;94.20
9373;DHT22;10838;52.350;9.790;2024-01-11T06:49:55;-7.20;94.20
9373;DHT22;10838;52.350;9.790;2024-01-11T06:52:21;-7.20;94.20
9373;DHT22;10838;52.350;9.790;2024-01-11T06:54:48;-7.20;94.20
9373;DHT22;10838;52.350;9.790;2024-01-11T06:57:15;-7.20;94.20
9373;DHT22;10838;52.350;9.790;2024-01-11T06:59:43;-7.20;94.20
9373;DHT22;10838;52.350;9.790;2024-01-11T07:02:11;-7.20;94.20
9373;DHT22;10838;52.350;9.790;2024-01-11T07:04:38;-7.20;94.20
9373;DHT22;10838;52.350;9.790;2024-01-11T07:07:09;-7.20;94.20
9373;DHT22;10838;52.350;9.790;2024-01-11T07:09:36;-7.30;94.20
9373;DHT22;10838;52.350;9.790;2024-01-11T07:12:03;-7.20;94.20
9373;DHT22;10838;52.350;9.790;2024-01-11T07:14:29;-7.20;94.20
9373;DHT22;10838;52.350;9.790;2024-01-11T07:16:57;-7.20;94.20
9373;DHT22;10838;52.350;9.790;2024-01-11T07:19:24;-7.20;94.20
9373;DHT22;10838;52.350;9.790;2024-01-11T07:21:50;-7.20;94.20
9373;DHT22;10838;52.350;9.790;2024-01-11T07:24:17;-7.20;94.20
9373;DHT22;10838;52.350;9.790;2024-01-11T07:26:44;-7.20;94.20
9373;DHT22;10838;52.350;9.790;2024-01-11T07:29:10;-7.20;94.20
9373;DHT22;10838;52.350;9.790;2024-01-11T07:31:37;-7.20;94.20
9373;DHT22;10838;52.350;9.790;2024-01-11T07:34:05;-7.20;94.20
9373;DHT22;10838;52.350;9.790;2024-01-11T07:36:31;-7.20;94.20
9373;DHT22;10838;52.350;9.790;2024-01-11T07:38:58;-7.20;94.20
9373;DHT22;10838;52.350;9.790;2024-01-11T07:41:25;-7.20;94.20
9373;DHT22;10838;52.350;9.790;2024-01-11T07:43:51;-7.20;94.20
9373;DHT22;10838;52.350;9.790;2024-01-11T07:46:19;-7.20;94.20
9373;DHT22;10838;52.350;9.790;2024-01-11T07:48:46;-7.20;94.20
9373;DHT22;10838;52.350;9.790;2024-01-11T07:51:14;-7.20;94.30
9373;DHT22;10838;52.350;9.790;2024-01-11T07:53:40;-7.20;94.30
9373;DHT22;10838;52.350;9.790;2024-01-11T07:56:07;-7.10;94.30
9373;DHT22;10838;52.350;9.790;2024-01-11T07:58:33;-7.10;94.30
9373;DHT22;10838;52.350;9.790;2024-01-11T08:01:01;-7.10;94.30
9373;DHT22;10838;52.350;9.790;2024-01-11T08:03:28;-7.10;94.30
9373;DHT22;10838;52.350;9.790;2024-01-11T08:05:55;-7.10;94.30
9373;DHT22;10838;52.350;9.790;2024-01-11T08:08:23;-7.10;94.40
9373;DHT22;10838;52.350;9.790;2024-01-11T08:10:50;-7.10;94.40
9373;DHT22;10838;52.350;9.790;2024-01-11T08:13:16;-7.10;94.40
9373;DHT22;10838;52.350;9.790;2024-01-11T08:15:43;-7.00;94.40
9373;DHT22;10838;52.350;9.790;2024-01-11T08:18:10;-7.00;94.40
9373;DHT22;10838;52.350;9.790;2024-01-11T08:20:36;-7.00;94.50
9373;DHT22;10838;52.350;9.790;2024-01-11T08:23:04;-6.90;94.50
9373;DHT22;10838;52.350;9.790;2024-01-11T08:25:33;-6.90;94.50
9373;DHT22;10838;52.350;9.790;2024-01-11T08:28:00;-6.80;94.60
9373;DHT22;10838;52.350;9.790;2024-01-11T08:30:28;-6.80;94.60
9373;DHT22;10838;52.350;9.790;2024-01-11T08:32:55;-6.80;94.60
9373;DHT22;10838;52.350;9.790;2024-01-11T08:35:22;-6.70;94.60
9373;DHT22;10838;52.350;9.790;2024-01-11T08:37:48;-6.70;94.70
9373;DHT22;10838;52.350;9.790;2024-01-11T08:40:15;-6.60;94.70
9373;DHT22;10838;52.350;9.790;2024-01-11T08:42:43;-6.60;94.70
9373;DHT22;10838;52.350;9.790;2024-01-11T08:45:10;-6.60;94.70
9373;DHT22;10838;52.350;9.790;2024-01-11T08:47:43;-6.50;94.70
9373;DHT22;10838;52.350;9.790;2024-01-11T08:50:12;-6.50;94.80
9373;DHT22;10838;52.350;9.790;2024-01-11T08:52:39;-6.50;94.90
9373;DHT22;10838;52.350;9.790;2024-01-11T08:55:06;-6.50;94.80
9373;DHT22;10838;52.350;9.790;2024-01-11T08:57:33;-6.40;94.80
9373;DHT22;10838;52.350;9.790;2024-01-11T09:00:02;-6.30;94.90
9373;DHT22;10838;52.350;9.790;2024-01-11T09:02:29;-6.20;94.90
9373;DHT22;10838;52.350;9.790;2024-01-11T09:04:55;-6.20;94.90
9373;DHT22;10838;52.350;9.790;2024-01-11T09:07:22;-6.10;95.00
9373;DHT22;10838;52.350;9.790;2024-01-11T09:09:49;-6.00;95.00
9373;DHT22;10838;52.350;9.790;2024-01-11T09:12:15;-6.00;95.00
9373;DHT22;10838;52.350;9.790;2024-01-11T09:14:42;-5.90;95.00
9373;DHT22;10838;52.350;9.790;2024-01-11T09:17:10;-5.90;95.10
9373;DHT22;10838;52.350;9.790;2024-01-11T09:19:36;-5.80;95.10
9373;DHT22;10838;52.350;9.790;2024-01-11T09:22:05;-5.70;95.10
9373;DHT22;10838;52.350;9.790;2024-01-11T09:24:34;-5.70;95.20
9373;DHT22;10838;52.350;9.790;2024-01-11T09:27:00;-5.60;95.20
9373;DHT22;10838;52.350;9.790;2024-01-11T09:29:27;-5.60;95.20
9373;DHT22;10838;52.350;9.790;2024-01-11T09:31:54;-5.50;95.20
9373;DHT22;10838;52.350;9.790;2024-01-11T09:34:22;-5.40;95.30
9373;DHT22;10838;52.350;9.790;2024-01-11T09:36:48;-5.40;95.30
9373;DHT22;10838;52.350;9.790;2024-01-11T09:39:15;-5.40;95.30
9373;DHT22;10838;52.350;9.790;2024-01-11T09:41:46;-5.30;95.40
9373;DHT22;10838;52.350;9.790;2024-01-11T09:44:16;-5.20;95.40
9373;DHT22;10838;52.350;9.790;2024-01-11T09:46:43;-5.20;95.40
9373;DHT22;10838;52.350;9.790;2024-01-11T09:49:10;-5.10;95.40
9373;DHT22;10838;52.350;9.790;2024-01-11T09:51:39;-5.10;95.50
9373;DHT22;10838;52.350;9.790;2024-01-11T09:54:06;-5.00;95.50
9373;DHT22;10838;52.350;9.790;2024-01-11T09:56:33;-5.00;95.50
9373;DHT22;10838;52.350;9.790;2024-01-11T09:59:01;-4.90;95.60
9373;DHT22;10838;52.350;9.790;2024-01-11T10:01:30;-4.90;95.60
9373;DHT22;10838;52.350;9.790;2024-01-11T10:03:57;-4.80;95.60
9373;DHT22;10838;52.350;9.790;2024-01-11T10:06:24;-4.80;95.70
9373;DHT22;10838;52.350;9.790;2024-01-11T10:08:53;-4.80;95.70
9373;DHT22;10838;52.350;9.790;2024-01-11T10:11:20;-4.70;95.70
9373;DHT22;10838;52.350;9.790;2024-01-11T10:13:46;-4.70;95.70
9373;DHT22;10838;52.350;9.790;2024-01-11T10:16:14;-4.60;95.80
9373;DHT22;10838;52.350;9.790;2024-01-11T10:18:41;-4.50;95.80
9373;DHT22;10838;52.350;9.790;2024-01-11T10:21:07;-4.50;95.80
9373;DHT22;10838;52.350;9.790;2024-01-11T10:23:35;-4.40;95.90
9373;DHT22;10838;52.350;9.790;2024-01-11T10:26:04;-4.40;95.90
9373;DHT22;10838;52.350;9.790;2024-01-11T10:28:32;-4.30;95.90
9373;DHT22;10838;52.350;9.790;2024-01-11T10:31:03;-4.30;96.00
9373;DHT22;10838;52.350;9.790;2024-01-11T10:33:29;-4.20;96.00
9373;DHT22;10838;52.350;9.790;2024-01-11T10:35:56;-4.20;96.00
9373;DHT22;10838;52.350;9.790;2024-01-11T10:38:26;-4.10;96.00
9373;DHT22;10838;52.350;9.790;2024-01-11T10:40:53;-4.10;96.10
9373;DHT22;10838;52.350;9.790;2024-01-11T10:43:23;-4.00;96.10
9373;DHT22;10838;52.350;9.790;2024-01-11T10:45:52;-4.00;96.10
9373;DHT22;10838;52.350;9.790;2024-01-11T10:48:21;-4.00;96.10
9373;DHT22;10838;52.350;9.790;2024-01-11T10:50:54;-3.90;96.20
9373;DHT22;10838;52.350;9.790;2024-01-11T10:53:34;-3.80;96.20
9373;DHT22;10838;52.350;9.790;2024-01-11T10:56:04;-3.80;96.20
9373;DHT22;10838;52.350;9.790;2024-01-11T10:58:34;-3.70;96.20
9373;DHT22;10838;52.350;9.790;2024-01-11T11:01:02;-3.70;96.30
9373;DHT22;10838;52.350;9.790;2024-01-11T11:03:30;-3.60;96.30
9373;DHT22;10838;52.350;9.790;2024-01-11T11:05:58;-3.60;96.40
9373;DHT22;10838;52.350;9.790;2024-01-11T11:08:25;-3.50;96.40
9373;DHT22;10838;52.350;9.790;2024-01-11T11:10:55;-3.50;96.40
9373;DHT22;10838;52.350;9.790;2024-01-11T11:13:22;-3.50;96.40
9373;DHT22;10838;52.350;9.790;2024-01-11T11:15:50;-3.40;96.40
9373;DHT22;10838;52.350;9.790;2024-01-11T11:18:18;-3.40;96.50
9373;DHT22;10838;52.350;9.790;2024-01-11T11:20:45;-3.30;96.50
9373;DHT22;10838;52.350;9.790;2024-01-11T11:23:15;-3.30;96.50
9373;DHT22;10838;52.350;9.790;2024-01-11T11:25:44;-3.30;96.50
9373;DHT22;10838;52.350;9.790;2024-01-11T11:28:12;-3.20;96.60
9373;DHT22;10838;52.350;9.790;2024-01-11T11:30:40;-3.20;96.60
9373;DHT22;10838;52.350;9.790;2024-01-11T11:33:09;-3.20;96.60
9373;DHT22;10838;52.350;9.790;2024-01-11T11:35:36;-3.10;96.60
9373;DHT22;10838;52.350;9.790;2024-01-11T11:38:02;-3.00;96.70
9373;DHT22;10838;52.350;9.790;2024-01-11T11:40:33;-3.00;96.70
9373;DHT22;10838;52.350;9.790;2024-01-11T11:43:04;-3.00;96.70
9373;DHT22;10838;52.350;9.790;2024-01-11T11:45:31;-2.90;96.70
9373;DHT22;10838;52.350;9.790;2024-01-11T11:47:58;-2.90;96.70
9373;DHT22;10838;52.350;9.790;2024-01-11T11:50:26;-2.90;96.80
9373;DHT22;10838;52.350;9.790;2024-01-11T11:52:54;-2.90;96.80
9373;DHT22;10838;52.350;9.790;2024-01-11T11:55:23;-2.80;96.80
9373;DHT22;10838;52.350;9.790;2024-01-11T11:57:50;-2.80;96.80
9373;DHT22;10838;52.350;9.790;2024-01-11T12:00:17;-2.70;96.80
9373;DHT22;10838;52.350;9.790;2024-01-11T12:02:44;-2.80;96.80
9373;DHT22;10838;52.350;9.790;2024-01-11T12:05:12;-2.70;96.90
9373;DHT22;10838;52.350;9.790;2024-01-11T12:07:40;-2.60;96.90
9373;DHT22;10838;52.350;9.790;2024-01-11T12:10:07;-2.60;96.90
9373;DHT22;10838;52.350;9.790;2024-01-11T12:12:34;-2.60;96.90
9373;DHT22;10838;52.350;9.790;2024-01-11T12:15:03;-2.50;96.90
9373;DHT22;10838;52.350;9.790;2024-01-11T12:17:29;-2.50;97.00
9373;DHT22;10838;52.350;9.790;2024-01-11T12:19:56;-2.50;97.00
9373;DHT22;10838;52.350;9.790;2024-01-11T12:22:23;-2.50;97.00
9373;DHT22;10838;52.350;9.790;2024-01-11T12:24:51;-2.40;97.00
9373;DHT22;10838;52.350;9.790;2024-01-11T12:27:17;-2.50;97.00
9373;DHT22;10838;52.350;9.790;2024-01-11T12:29:45;-2.40;97.00
9373;DHT22;10838;52.350;9.790;2024-01-11T12:32:12;-2.30;97.00
9373;DHT22;10838;52.350;9.790;2024-01-11T12:34:41;-2.30;97.10
9373;DHT22;10838;52.350;9.790;2024-01-11T12:37:08;-2.30;97.10
9373;DHT22;10838;52.350;9.790;2024-01-11T12:39:37;-2.20;97.10
9373;DHT22;10838;52.350;9.790;2024-01-11T12:42:06;-2.20;97.10
9373;DHT22;10838;52.350;9.790;2024-01-11T12:44:33;-2.10;97.10
9373;DHT22;10838;52.350;9.790;2024-01-11T12:47:00;-2.10;97.10
9373;DHT22;10838;52.350;9.790;2024-01-11T12:49:27;-2.00;97.10
9373;DHT22;10838;52.350;9.790;2024-01-11T12:51:54;-2.00;97.10
9373;DHT22;10838;52.350;9.790;2024-01-11T12:54:21;-2.00;97.20
9373;DHT22;10838;52.350;9.790;2024-01-11T12:56:48;-1.90;97.20
9373;DHT22;10838;52.350;9.790;2024-01-11T12:59:17;-1.90;97.20
9373;DHT22;10838;52.350;9.790;2024-01-11T13:01:44;-1.90;97.20
9373;DHT22;10838;52.350;9.790;2024-01-11T13:04:11;-1.90;97.20
9373;DHT22;10838;52.350;9.790;2024-01-11T13:06:37;-1.80;97.20
9373;DHT22;10838;52.350;9.790;2024-01-11T13:09:04;-1.80;97.20
9373;DHT22;10838;52.350;9.790;2024-01-11T13:11:33;-1.80;97.20
9373;DHT22;10838;52.350;9.790;2024-01-11T13:13:59;-1.80;97.20
9373;DHT22;10838;52.350;9.790;2024-01-11T13:16:31;-1.70;97.30
9373;DHT22;10838;52.350;9.790;2024-01-11T13:18:58;-1.70;97.30
9373;DHT22;10838;52.350;9.790;2024-01-11T13:21:24;-1.70;97.30
9373;DHT22;10838;52.350;9.790;2024-01-11T13:23:51;-1.70;97.30
9373;DHT22;10838;52.350;9.790;2024-01-11T13:26:19;-1.60;97.30
9373;DHT22;10838;52.350;9.790;2024-01-11T13:28:45;-1.60;97.30
9373;DHT22;10838;52.350;9.790;2024-01-11T13:31:12;-1.60;97.30
9373;DHT22;10838;52.350;9.790;2024-01-11T13:33:39;-1.60;97.30
9373;DHT22;10838;52.350;9.790;2024-01-11T13:36:06;-1.50;97.40
9373;DHT22;10838;52.350;9.790;2024-01-11T13:38:34;-1.50;97.40
9373;DHT22;10838;52.350;9.790;2024-01-11T13:41:00;-1.50;97.40
9373;DHT22;10838;52.350;9.790;2024-01-11T13:43:27;-1.40;97.40
9373;DHT22;10838;52.350;9.790;2024-01-11T13:45:53;-1.40;97.40
9373;DHT22;10838;52.350;9.790;2024-01-11T13:48:20;-1.40;97.40
9373;DHT22;10838;52.350;9.790;2024-01-11T13:50:48;-1.30;97.40
9373;DHT22;10838;52.350;9.790;2024-01-11T13:53:15;-1.30;97.40
9373;DHT22;10838;52.350;9.790;2024-01-11T13:55:41;-1.30;97.40
9373;DHT22;10838;52.350;9.790;2024-01-11T13:58:09;-1.30;97.40
9373;DHT22;10838;52.350;9.790;2024-01-11T14:00:37;-1.30;97.40
9373;DHT22;10838;52.350;9.790;2024-01-11T14:03:04;-1.20;97.50
9373;DHT22;10838;52.350;9.790;2024-01-11T14:05:31;-1.20;97.50
9373;DHT22;10838;52.350;9.790;2024-01-11T14:07:59;-1.20;97.50
9373;DHT22;10838;52.350;9.790;2024-01-11T14:10:26;-1.20;97.50
9373;DHT22;10838;52.350;9.790;2024-01-11T14:12:53;-1.10;97.50
9373;DHT22;10838;52.350;9.790;2024-01-11T14:15:20;-1.10;97.50
9373;DHT22;10838;52.350;9.790;2024-01-11T14:17:46;-1.10;97.50
9373;DHT22;10838;52.350;9.790;2024-01-11T14:20:13;-1.10;97.50
9373;DHT22;10838;52.350;9.790;2024-01-11T14:22:40;-1.00;97.50
9373;DHT22;10838;52.350;9.790;2024-01-11T14:25:09;-1.00;97.50
9373;DHT22;10838;52.350;9.790;2024-01-11T14:27:36;-1.00;97.50
9373;DHT22;10838;52.350;9.790;2024-01-11T14:30:04;-1.00;97.50
9373;DHT22;10838;52.350;9.790;2024-01-11T14:32:31;-0.90;97.60
9373;DHT22;10838;52.350;9.790;2024-01-11T14:34:58;-0.90;97.60
9373;DHT22;10838;52.350;9.790;2024-01-11T14:37:28;-0.90;97.60
9373;DHT22;10838;52.350;9.790;2024-01-11T14:39:55;-0.90;97.60
9373;DHT22;10838;52.350;9.790;2024-01-11T14:42:24;-0.90;97.60
9373;DHT22;10838;52.350;9.790;2024-01-11T14:44:51;-0.80;97.60
9373;DHT22;10838;52.350;9.790;2024-01-11T14:47:18;-0.80;97.60
9373;DHT22;10838;52.350;9.790;2024-01-11T14:49:44;-0.80;97.60
9373;DHT22;10838;52.350;9.790;2024-01-11T14:52:11;-0.80;97.60
9373;DHT22;10838;52.350;9.790;2024-01-11T14:54:38;-0.80;97.60
9373;DHT22;10838;52.350;9.790;2024-01-11T14:57:05;-0.70;97.60
9373;DHT22;10838;52.350;9.790;2024-01-11T14:59:32;-0.70;97.60
9373;DHT22;10838;52.350;9.790;2024-01-11T15:02:00;-0.70;97.60
9373;DHT22;10838;52.350;9.790;2024-01-11T15:04:26;-0.70;97.70
9373;DHT22;10838;52.350;9.790;2024-01-11T15:06:53;-0.70;97.70
9373;DHT22;10838;52.350;9.790;2024-01-11T15:09:19;-0.60;97.70
9373;DHT22;10838;52.350;9.790;2024-01-11T15:11:46;-0.60;97.70
9373;DHT22;10838;52.350;9.790;2024-01-11T15:14:12;-0.60;97.70
9373;DHT22;10838;52.350;9.790;2024-01-11T15:16:40;-0.60;97.70
9373;DHT22;10838;52.350;9.790;2024-01-11T15:19:09;-0.60;97.70
9373;DHT22;10838;52.350;9.790;2024-01-11T15:21:36;-0.60;97.70
9373;DHT22;10838;52.350;9.790;2024-01-11T15:24:03;-0.50;97.70
9373;DHT22;10838;52.350;9.790;2024-01-11T15:26:29;-0.50;97.70
9373;DHT22;10838;52.350;9.790;2024-01-11T15:28:56;-0.50;97.70
9373;DHT22;10838;52.350;9.790;2024-01-11T15:31:22;-0.50;97.70
9373;DHT22;10838;52.350;9.790;2024-01-11T15:33:52;-0.50;97.70
9373;DHT22;10838;52.350;9.790;2024-01-11T15:36:20;-0.50;97.70
9373;DHT22;10838;52.350;9.790;2024-01-11T15:38:47;-0.50;97.70
9373;DHT22;10838;52.350;9.790;2024-01-11T15:41:14;-0.40;97.80
9373;DHT22;10838;52.350;9.790;2024-01-11T15:43:41;-0.40;97.80